KARR/ARR METAR and TAF weather

Enter ICAO airport designator
Station Type Date Time Source
KARR METAR 2020/04/08 20:52 UTC NOAA

KARR 082052Z 35018G28KT 9SM FEW032 SCT090 19/11 A2963 RMK AO2 PK WND 34028/2046 RAB29E47 SLP033 P0000 60000 T01940106 58031


Station Type Date Time Source
KARR Decoded METAR 2020/04/08 20:52 UTC NOAA

CHICAGO AURORA MUNICIPAL, IL, United States (KARR) 41-46N 088-28W 215M
Apr 08, 2020 - 04:52 PM EDT / 2020.04.08 2052 UTC
Wind: from the N (350 degrees) at 21 MPH (18 KT) gusting to 32 MPH (28 KT):0
Visibility: 9 mile(s):0
Sky conditions: partly cloudy
Precipitation last hour: A trace
Temperature: 66.9 F (19.4 C)
Dew Point: 51.1 F (10.6 C)
Relative Humidity: 56%
Pressure (altimeter): 29.63 in. Hg (1003 hPa)
Pressure tendency: 0.09 inches (3.1 hPa) lower than three hours ago
ob: KARR 082052Z 35018G28KT 9SM FEW032 SCT090 19/11 A2963 RMK AO2 PK WND 34028/2046 RAB29E47 SLP033 P0000 60000 T01940106 58031
cycle: 21

Station Type Date Time Source
KARR TAF UTC NOAA

Error!

Example: see airport list